createdAt,value
2019-04-04T00:02:29.109Z,4.70
2019-04-04T00:04:58.564Z,4.70
2019-04-04T00:07:28.997Z,4.80
2019-04-04T00:09:59.163Z,4.80
2019-04-04T00:12:28.762Z,4.70
2019-04-04T00:14:58.158Z,4.70
2019-04-04T00:17:27.703Z,4.60
2019-04-04T00:19:57.194Z,4.60
2019-04-04T00:22:26.489Z,4.50
2019-04-04T00:24:56.452Z,4.60
2019-04-04T00:27:25.834Z,4.50
2019-04-04T00:29:55.209Z,4.50
2019-04-04T00:32:24.836Z,4.60
2019-04-04T00:34:54.320Z,4.60
2019-04-04T00:37:23.861Z,4.70
2019-04-04T00:39:53.349Z,4.70
2019-04-04T00:42:22.816Z,4.80
2019-04-04T00:44:53.806Z,4.80
2019-04-04T00:47:23.103Z,4.90
2019-04-04T00:49:52.937Z,4.90
2019-04-04T00:52:22.602Z,4.90
2019-04-04T00:54:51.902Z,4.90
2019-04-04T00:57:21.289Z,4.90
2019-04-04T00:59:53.311Z,4.90
2019-04-04T01:02:21.813Z,5.00
2019-04-04T01:04:51.208Z,4.90
2019-04-04T01:07:21.482Z,4.90
2019-04-04T01:09:51.050Z,4.80
2019-04-04T01:12:21.731Z,4.80
2019-04-04T01:14:51.620Z,4.80
2019-04-04T01:17:21.277Z,4.80
2019-04-04T01:19:50.638Z,4.80
2019-04-04T01:22:20.032Z,4.70
2019-04-04T01:24:49.674Z,4.70
2019-04-04T01:27:19.353Z,4.60
2019-04-04T01:29:49.062Z,4.70
2019-04-04T01:32:18.375Z,4.70
2019-04-04T01:34:48.087Z,4.70
2019-04-04T01:37:17.478Z,4.70
2019-04-04T01:39:46.752Z,4.70
2019-04-04T01:42:16.134Z,4.70
2019-04-04T01:44:45.673Z,4.60
2019-04-04T01:47:16.792Z,4.60
2019-04-04T01:49:45.994Z,4.60
2019-04-04T01:52:15.369Z,4.60
2019-04-04T01:54:44.695Z,4.60
2019-04-04T01:57:14.458Z,4.50
2019-04-04T01:59:44.385Z,4.40
2019-04-04T02:02:13.801Z,4.40
2019-04-04T02:04:43.199Z,4.30
2019-04-04T02:07:12.586Z,4.30
2019-04-04T02:09:43.485Z,4.40
2019-04-04T02:12:13.021Z,4.40
2019-04-04T02:14:43.029Z,4.50
2019-04-04T02:17:13.165Z,4.50
2019-04-04T02:19:42.458Z,4.40
2019-04-04T02:22:11.836Z,4.40
2019-04-04T02:24:41.181Z,4.40
2019-04-04T02:27:10.606Z,4.40
2019-04-04T02:29:41.944Z,4.30
2019-04-04T02:32:14.578Z,4.40
2019-04-04T02:34:43.854Z,4.30
2019-04-04T02:37:13.243Z,4.20
2019-04-04T02:39:42.647Z,4.20
2019-04-04T02:42:12.036Z,4.20
2019-04-04T02:44:41.741Z,4.20
2019-04-04T02:47:11.299Z,4.20
2019-04-04T02:49:40.669Z,4.20
2019-04-04T02:52:12.916Z,4.20
2019-04-04T02:54:41.067Z,4.20
2019-04-04T02:57:10.604Z,4.20
2019-04-04T02:59:40.595Z,4.30
2019-04-04T03:02:09.998Z,4.30
2019-04-04T03:04:39.388Z,4.30
2019-04-04T03:07:08.708Z,4.20
2019-04-04T03:09:42.161Z,4.20
2019-04-04T03:12:09.342Z,4.20
2019-04-04T03:14:38.641Z,4.30
2019-04-04T03:17:08.318Z,4.30
2019-04-04T03:19:38.052Z,4.20
2019-04-04T03:22:07.504Z,4.30
2019-04-04T03:24:40.305Z,4.30
2019-04-04T03:27:07.898Z,4.30
2019-04-04T03:29:38.313Z,4.30
2019-04-04T03:32:13.354Z,4.30
2019-04-04T03:34:38.775Z,4.30
2019-04-04T03:37:12.116Z,4.20
2019-04-04T03:39:39.243Z,4.30
2019-04-04T03:42:08.674Z,4.40
2019-04-04T03:44:37.998Z,4.30
2019-04-04T03:47:09.914Z,4.30
2019-04-04T03:49:38.671Z,4.50
2019-04-04T03:52:11.322Z,4.50
2019-04-04T03:54:39.069Z,4.40
2019-04-04T03:57:11.108Z,4.40
2019-04-04T03:59:39.686Z,4.40
2019-04-04T04:02:09.062Z,4.40
2019-04-04T04:04:38.499Z,4.50
2019-04-04T04:07:08.154Z,4.60
2019-04-04T04:09:37.548Z,4.50
2019-04-04T04:12:10.064Z,4.50
2019-04-04T04:14:37.949Z,4.30
2019-04-04T04:17:09.231Z,4.30
2019-04-04T04:19:38.664Z,4.30
2019-04-04T04:22:08.026Z,4.30
2019-04-04T04:24:37.554Z,4.30
2019-04-04T04:27:06.914Z,4.40
2019-04-04T04:29:36.218Z,4.30
2019-04-04T04:32:05.586Z,4.20
2019-04-04T04:34:35.980Z,4.30
2019-04-04T04:37:05.367Z,4.30
2019-04-04T04:39:40.726Z,4.40
2019-04-04T04:42:05.957Z,4.30
2019-04-04T04:44:38.723Z,4.40
2019-04-04T04:47:06.709Z,4.50
2019-04-04T04:49:36.451Z,4.50
2019-04-04T04:52:05.929Z,4.50
2019-04-04T04:54:35.359Z,4.50
2019-04-04T04:57:05.077Z,4.50
2019-04-04T04:59:34.543Z,4.50
2019-04-04T05:02:03.903Z,4.50
2019-04-04T05:04:33.234Z,4.50
2019-04-04T05:07:02.593Z,4.50
2019-04-04T05:09:32.330Z,4.50
2019-04-04T05:12:01.626Z,4.50
2019-04-04T05:14:31.025Z,4.60
2019-04-04T05:17:00.629Z,4.50
2019-04-04T05:19:29.993Z,4.50
2019-04-04T05:21:59.356Z,4.50
2019-04-04T05:24:28.737Z,4.60
2019-04-04T05:26:58.128Z,4.60
2019-04-04T05:29:27.518Z,4.50
2019-04-04T05:31:56.911Z,4.60
2019-04-04T05:34:28.279Z,4.70
2019-04-04T05:36:57.827Z,4.70
2019-04-04T05:39:27.512Z,4.70
2019-04-04T05:41:59.900Z,4.60
2019-04-04T05:44:27.897Z,4.60
2019-04-04T05:46:57.316Z,4.50
2019-04-04T05:49:26.700Z,4.50
2019-04-04T05:51:56.920Z,4.60
2019-04-04T05:54:26.302Z,4.60
2019-04-04T05:56:55.658Z,4.60
2019-04-04T05:59:25.182Z,4.60
2019-04-04T06:01:54.542Z,4.50
2019-04-04T06:04:23.952Z,4.60
2019-04-04T06:06:55.560Z,4.60
2019-04-04T06:09:24.988Z,4.70
2019-04-04T06:11:54.491Z,4.60
2019-04-04T06:14:24.172Z,4.60
2019-04-04T06:16:53.480Z,4.50
2019-04-04T06:19:22.874Z,4.50
2019-04-04T06:21:52.248Z,4.50
2019-04-04T06:24:21.679Z,4.50
2019-04-04T06:26:51.225Z,4.50
2019-04-04T06:29:20.600Z,4.50
2019-04-04T06:31:49.995Z,4.50
2019-04-04T06:34:19.451Z,4.50
2019-04-04T06:36:49.114Z,4.50
2019-04-04T06:39:18.953Z,4.60
2019-04-04T06:41:48.622Z,4.60
2019-04-04T06:44:18.265Z,4.60
2019-04-04T06:46:47.661Z,4.50
2019-04-04T06:49:17.033Z,4.60
2019-04-04T06:51:47.199Z,4.60
2019-04-04T06:54:16.639Z,4.70
2019-04-04T06:56:46.287Z,4.70
2019-04-04T06:59:15.575Z,4.70
2019-04-04T07:01:45.617Z,4.70
2019-04-04T07:04:17.254Z,4.80
2019-04-04T07:06:46.842Z,4.90
2019-04-04T07:09:18.236Z,5.00
2019-04-04T07:11:47.186Z,4.90
2019-04-04T07:14:17.083Z,4.90
2019-04-04T07:16:46.680Z,4.80
2019-04-04T07:19:16.310Z,4.80
2019-04-04T07:21:45.906Z,4.80
2019-04-04T07:24:15.214Z,4.80
2019-04-04T07:26:45.502Z,4.90
2019-04-04T07:29:15.393Z,5.00
2019-04-04T07:31:45.149Z,5.00
2019-04-04T07:34:14.554Z,5.00
2019-04-04T07:36:43.994Z,5.10
2019-04-04T07:39:13.743Z,5.20
2019-04-04T07:41:45.022Z,5.00
2019-04-04T07:44:14.183Z,5.00
2019-04-04T07:46:45.653Z,5.00
2019-04-04T07:49:14.822Z,5.00
2019-04-04T07:51:44.236Z,5.00
2019-04-04T07:54:13.971Z,5.10
2019-04-04T07:56:47.994Z,5.10
2019-04-04T07:59:14.328Z,5.20
2019-04-04T08:01:51.019Z,5.10
2019-04-04T08:04:14.823Z,5.20
2019-04-04T08:06:44.490Z,5.20
2019-04-04T08:09:14.133Z,5.40
2019-04-04T08:11:43.838Z,5.50
2019-04-04T08:14:13.509Z,5.40
2019-04-04T08:16:43.288Z,5.40
2019-04-04T08:19:12.684Z,5.30
2019-04-04T08:21:42.109Z,5.30
2019-04-04T08:24:11.462Z,5.40
2019-04-04T08:26:40.860Z,5.40
2019-04-04T08:29:10.152Z,5.30
2019-04-04T08:31:39.546Z,5.30
2019-04-04T08:34:08.945Z,5.40
2019-04-04T08:36:38.342Z,5.50
2019-04-04T08:39:11.538Z,5.60
2019-04-04T08:41:40.990Z,5.80
2019-04-04T08:44:10.446Z,5.70
2019-04-04T08:46:40.117Z,5.70
2019-04-04T08:49:09.702Z,5.60
2019-04-04T08:51:39.093Z,5.50
2019-04-04T08:54:08.486Z,5.50
2019-04-04T08:56:38.107Z,5.50
2019-04-04T08:59:07.785Z,5.60
2019-04-04T09:01:37.174Z,5.50
2019-04-04T09:04:06.565Z,5.60
2019-04-04T09:06:35.942Z,5.60
2019-04-04T09:09:06.668Z,5.60
2019-04-04T09:11:35.959Z,5.60
2019-04-04T09:14:05.585Z,5.50
2019-04-04T09:16:35.044Z,5.50
2019-04-04T09:19:04.421Z,5.40
2019-04-04T09:21:33.797Z,5.40
2019-04-04T09:24:03.208Z,5.40
2019-04-04T09:26:32.557Z,5.50
2019-04-04T09:29:01.950Z,5.50
2019-04-04T09:31:31.241Z,5.60
2019-04-04T09:34:00.618Z,5.60
2019-04-04T09:36:30.002Z,5.50
2019-04-04T09:38:59.383Z,5.50
2019-04-04T09:41:28.761Z,5.50
2019-04-04T09:43:58.154Z,5.50
2019-04-04T09:46:27.812Z,5.50
2019-04-04T09:48:57.244Z,5.50
2019-04-04T09:51:26.658Z,5.60
2019-04-04T09:53:56.009Z,5.70
2019-04-04T09:56:25.293Z,5.80
2019-04-04T09:58:55.100Z,5.80
2019-04-04T10:01:24.549Z,5.90
2019-04-04T10:03:54.016Z,5.80
2019-04-04T10:06:23.320Z,5.80
2019-04-04T10:08:52.710Z,5.80
2019-04-04T10:11:22.068Z,5.70
2019-04-04T10:13:51.662Z,5.70
2019-04-04T10:16:21.302Z,5.80
2019-04-04T10:18:50.719Z,5.90
2019-04-04T10:21:20.107Z,5.70
2019-04-04T10:23:50.436Z,5.70
2019-04-04T10:26:20.611Z,5.70
2019-04-04T10:28:49.957Z,5.60
2019-04-04T10:31:19.313Z,5.60
2019-04-04T10:33:48.630Z,5.80
2019-04-04T10:36:17.908Z,5.80
2019-04-04T10:38:47.296Z,5.90
2019-04-04T10:41:16.644Z,5.90
2019-04-04T10:43:46.033Z,5.70
2019-04-04T10:46:15.742Z,5.70
2019-04-04T10:48:45.085Z,5.60
2019-04-04T10:51:14.452Z,5.70
2019-04-04T10:53:43.766Z,5.70
2019-04-04T10:56:13.426Z,5.70
2019-04-04T10:58:42.855Z,5.60
2019-04-04T11:01:12.581Z,5.70
2019-04-04T11:03:42.018Z,5.70
2019-04-04T11:06:12.440Z,5.80
2019-04-04T11:08:42.175Z,5.70
2019-04-04T11:11:12.690Z,5.70
2019-04-04T11:13:42.778Z,5.70
2019-04-04T11:16:12.987Z,5.70
2019-04-04T11:18:42.381Z,5.60
2019-04-04T11:21:12.099Z,5.50
2019-04-04T11:23:41.553Z,5.60
2019-04-04T11:26:11.242Z,5.60
2019-04-04T11:28:40.934Z,5.60
2019-04-04T11:31:10.425Z,5.50
2019-04-04T11:33:40.114Z,5.40
2019-04-04T11:36:09.654Z,5.50
2019-04-04T11:38:40.541Z,5.70
2019-04-04T11:41:09.856Z,5.70
2019-04-04T11:43:39.471Z,5.70
2019-04-04T11:46:09.094Z,5.70
2019-04-04T11:48:38.493Z,5.60
2019-04-04T11:51:07.998Z,5.50
2019-04-04T11:53:37.535Z,5.70
2019-04-04T11:56:06.827Z,5.60
2019-04-04T11:58:36.209Z,5.60
2019-04-04T12:01:07.865Z,5.70
2019-04-04T12:03:37.522Z,5.50
2019-04-04T12:06:06.984Z,5.40
2019-04-04T12:08:36.609Z,5.50
2019-04-04T12:11:06.109Z,5.50
2019-04-04T12:13:35.797Z,5.60
2019-04-04T12:16:05.433Z,5.50
2019-04-04T12:18:34.861Z,5.50
2019-04-04T12:21:04.513Z,5.30
2019-04-04T12:23:34.179Z,5.20
2019-04-04T12:26:03.523Z,5.30
2019-04-04T12:28:33.578Z,5.20
2019-04-04T12:31:03.339Z,5.30
2019-04-04T12:33:32.750Z,5.30
2019-04-04T12:36:02.477Z,5.40
2019-04-04T12:38:32.045Z,5.30
2019-04-04T12:41:01.458Z,5.30
2019-04-04T12:43:30.796Z,5.40
2019-04-04T12:46:00.190Z,5.50
2019-04-04T12:48:29.616Z,5.30
2019-04-04T12:50:59.215Z,5.40
2019-04-04T12:53:29.113Z,5.40
2019-04-04T12:55:58.564Z,5.30
2019-04-04T12:58:27.986Z,5.30
2019-04-04T13:00:57.369Z,5.30
2019-04-04T13:03:26.764Z,5.20
2019-04-04T13:05:56.198Z,5.10
2019-04-04T13:08:25.575Z,5.20
2019-04-04T13:10:55.263Z,5.20
2019-04-04T13:13:24.631Z,5.10
2019-04-04T13:15:54.046Z,5.20
2019-04-04T13:18:23.619Z,5.30
2019-04-04T13:20:53.014Z,5.30
2019-04-04T13:23:22.375Z,5.20
2019-04-04T13:25:51.767Z,5.20
2019-04-04T13:28:21.135Z,5.30
2019-04-04T13:30:50.696Z,5.10
2019-04-04T13:33:22.459Z,5.10
2019-04-04T13:35:51.031Z,5.10
2019-04-04T13:38:20.427Z,5.30
2019-04-04T13:40:49.858Z,5.20
2019-04-04T13:43:22.240Z,5.30
2019-04-04T13:45:50.423Z,5.30
2019-04-04T13:48:19.805Z,5.40
2019-04-04T13:50:49.496Z,5.40
2019-04-04T13:53:20.793Z,5.40
2019-04-04T13:55:50.398Z,5.30
2019-04-04T13:58:22.310Z,5.30
2019-04-04T14:00:51.018Z,5.30
2019-04-04T14:03:20.453Z,5.20
2019-04-04T14:05:49.804Z,5.30
2019-04-04T14:08:19.116Z,5.30
2019-04-04T14:10:57.917Z,5.30
2019-04-04T14:13:19.609Z,5.10
2019-04-04T14:15:49.265Z,5.40
2019-04-04T14:18:38.148Z,5.40
2019-04-04T14:21:03.499Z,5.40
2019-04-04T14:23:27.906Z,5.60
2019-04-04T14:25:59.647Z,5.70
2019-04-04T14:28:29.385Z,5.70
2019-04-04T14:30:58.810Z,5.70
2019-04-04T14:33:28.502Z,5.50
2019-04-04T14:35:57.911Z,5.60
2019-04-04T14:38:27.287Z,5.60
2019-04-04T14:40:56.714Z,5.90
2019-04-04T14:43:29.735Z,6.00
2019-04-04T14:45:58.218Z,6.10
2019-04-04T14:48:27.661Z,6.20
2019-04-04T14:50:57.341Z,6.10
2019-04-04T14:53:26.860Z,5.90
2019-04-04T14:55:56.445Z,6.00
2019-04-04T14:58:25.812Z,6.00
2019-04-04T15:00:55.200Z,5.90
2019-04-04T15:03:24.974Z,5.90
2019-04-04T15:05:55.067Z,6.10
2019-04-04T15:08:24.738Z,6.10
2019-04-04T15:10:54.144Z,6.00
2019-04-04T15:13:23.869Z,6.10
2019-04-04T15:16:13.300Z,6.00
2019-04-04T15:18:43.478Z,6.00
2019-04-04T15:21:13.074Z,6.00
2019-04-04T15:23:42.350Z,6.10
2019-04-04T15:26:11.750Z,6.10
2019-04-04T15:28:41.134Z,6.30
2019-04-04T15:31:10.499Z,6.60
2019-04-04T15:33:40.125Z,6.60
2019-04-04T15:36:09.532Z,6.40
2019-04-04T15:38:38.959Z,6.40
2019-04-04T15:41:08.354Z,6.20
2019-04-04T15:43:37.703Z,6.20
2019-04-04T15:46:07.093Z,6.00
2019-04-04T15:48:36.728Z,5.90
2019-04-04T15:51:06.119Z,5.80
2019-04-04T15:53:35.517Z,5.80
2019-04-04T15:56:05.352Z,5.80
2019-04-04T15:58:35.113Z,5.80
2019-04-04T16:01:04.642Z,5.80
2019-04-04T16:03:33.930Z,6.00
2019-04-04T16:06:03.277Z,6.00
2019-04-04T16:08:32.865Z,6.00
2019-04-04T16:11:02.707Z,5.90
2019-04-04T16:13:32.436Z,5.90
2019-04-04T16:16:02.101Z,5.90
2019-04-04T16:18:31.478Z,5.90
2019-04-04T16:21:00.902Z,6.00
2019-04-04T16:23:30.214Z,6.00
2019-04-04T16:25:59.516Z,6.20
2019-04-04T16:28:28.829Z,6.40
2019-04-04T16:30:58.208Z,6.30
2019-04-04T16:33:27.522Z,6.40
2019-04-04T16:35:58.062Z,6.20
2019-04-04T16:38:27.720Z,6.10
2019-04-04T16:40:57.029Z,6.00
2019-04-04T16:43:26.349Z,6.00
2019-04-04T16:45:55.726Z,5.90
2019-04-04T16:48:25.135Z,6.00
2019-04-04T16:50:54.507Z,5.90
2019-04-04T16:53:23.870Z,5.90
2019-04-04T16:55:53.243Z,5.90
2019-04-04T16:58:22.632Z,5.90
2019-04-04T17:00:52.298Z,5.90
2019-04-04T17:03:21.733Z,5.90
2019-04-04T17:05:51.139Z,5.90
2019-04-04T17:08:20.544Z,5.90
2019-04-04T17:10:49.928Z,5.80
2019-04-04T17:13:19.634Z,5.80
2019-04-04T17:15:49.240Z,5.60
2019-04-04T17:18:18.639Z,5.60
2019-04-04T17:20:47.935Z,5.60
2019-04-04T17:23:17.684Z,5.50
2019-04-04T17:25:47.388Z,5.50
2019-04-04T17:28:17.093Z,5.40
2019-04-04T17:30:47.394Z,5.50
2019-04-04T17:33:17.273Z,5.40
2019-04-04T17:35:46.683Z,5.30
2019-04-04T17:38:16.414Z,5.20
2019-04-04T17:40:46.615Z,5.20
2019-04-04T17:43:16.057Z,5.40
2019-04-04T17:45:46.133Z,5.30
2019-04-04T17:48:15.487Z,5.30
2019-04-04T17:50:44.920Z,5.20
2019-04-04T17:53:14.654Z,5.10
2019-04-04T17:55:44.848Z,5.10
2019-04-04T17:58:14.651Z,5.00
2019-04-04T18:00:44.020Z,5.00
2019-04-04T18:03:13.345Z,5.00
2019-04-04T18:05:42.738Z,5.00
2019-04-04T18:08:12.306Z,4.90
2019-04-04T18:10:41.902Z,4.90
2019-04-04T18:13:11.221Z,5.00
2019-04-04T18:15:40.522Z,4.90
2019-04-04T18:18:09.851Z,4.90
2019-04-04T18:20:39.153Z,4.90
2019-04-04T18:23:08.898Z,4.90
2019-04-04T18:25:38.337Z,4.90
2019-04-04T18:28:08.042Z,4.90
2019-04-04T18:30:37.608Z,4.90
2019-04-04T18:33:07.143Z,4.90
2019-04-04T18:35:37.152Z,4.90
2019-04-04T18:38:06.850Z,4.90
2019-04-04T18:40:36.524Z,4.90
2019-04-04T18:43:05.962Z,4.90
2019-04-04T18:45:35.733Z,4.80
2019-04-04T18:48:05.400Z,4.80
2019-04-04T18:50:34.811Z,4.90
2019-04-04T18:53:04.338Z,4.80
2019-04-04T18:55:34.216Z,4.80
2019-04-04T18:58:03.599Z,4.80
2019-04-04T19:00:33.018Z,4.90
2019-04-04T19:03:02.393Z,4.80
2019-04-04T19:05:31.972Z,4.80
2019-04-04T19:08:01.333Z,4.80
2019-04-04T19:10:30.842Z,4.80
2019-04-04T19:13:05.540Z,4.90
2019-04-04T19:15:31.519Z,5.00
2019-04-04T19:18:00.898Z,5.00
2019-04-04T19:20:30.298Z,4.90
2019-04-04T19:22:59.668Z,5.00
2019-04-04T19:25:29.352Z,5.00
2019-04-04T19:27:59.216Z,5.00
2019-04-04T19:30:28.627Z,5.00
2019-04-04T19:32:58.016Z,5.00
2019-04-04T19:35:27.693Z,5.00
2019-04-04T19:38:00.322Z,5.00
2019-04-04T19:40:28.504Z,5.10
2019-04-04T19:42:57.877Z,5.00
2019-04-04T19:45:27.294Z,4.90
2019-04-04T19:47:56.687Z,4.90
2019-04-04T19:50:26.139Z,4.90
2019-04-04T19:52:55.504Z,5.00
2019-04-04T19:55:24.947Z,4.90
2019-04-04T19:57:54.336Z,4.90
2019-04-04T20:00:24.376Z,5.00
2019-04-04T20:02:53.740Z,5.00
2019-04-04T20:05:23.302Z,4.90
2019-04-04T20:07:52.698Z,5.00
2019-04-04T20:10:22.121Z,5.00
2019-04-04T20:12:51.502Z,4.90
2019-04-04T20:15:20.877Z,5.00
2019-04-04T20:17:50.266Z,5.00
2019-04-04T20:20:19.587Z,5.00
2019-04-04T20:22:49.087Z,5.00
2019-04-04T20:25:18.493Z,5.00
2019-04-04T20:27:54.558Z,5.00
2019-04-04T20:30:23.245Z,5.10
2019-04-04T20:32:52.881Z,5.00
2019-04-04T20:35:22.323Z,5.10
2019-04-04T20:37:52.031Z,5.10
2019-04-04T20:40:21.500Z,5.10
2019-04-04T20:42:51.409Z,5.10
2019-04-04T20:45:21.541Z,5.10
2019-04-04T20:47:50.907Z,5.10
2019-04-04T20:50:20.283Z,5.10
2019-04-04T20:52:49.886Z,5.10
2019-04-04T20:55:19.287Z,5.10
2019-04-04T20:57:48.601Z,5.10
2019-04-04T21:00:18.362Z,5.00
2019-04-04T21:02:47.736Z,5.10
2019-04-04T21:05:17.423Z,5.10
2019-04-04T21:07:47.357Z,5.00
2019-04-04T21:10:16.730Z,5.10
2019-04-04T21:12:46.398Z,5.10
2019-04-04T21:15:15.778Z,5.00
2019-04-04T21:17:45.590Z,5.00
2019-04-04T21:20:14.913Z,5.10
2019-04-04T21:22:44.223Z,5.10
2019-04-04T21:25:13.903Z,5.00
2019-04-04T21:27:43.288Z,5.10
2019-04-04T21:30:14.061Z,5.10
2019-04-04T21:32:43.979Z,5.10
2019-04-04T21:35:13.284Z,5.10
2019-04-04T21:37:42.713Z,5.10
2019-04-04T21:40:12.521Z,5.10
2019-04-04T21:42:41.835Z,5.10
2019-04-04T21:45:11.237Z,5.10
2019-04-04T21:47:40.605Z,5.20
2019-04-04T21:50:10.216Z,5.20
2019-04-04T21:52:39.881Z,5.20
2019-04-04T21:55:09.386Z,5.20
2019-04-04T21:57:39.054Z,5.20
2019-04-04T22:00:09.139Z,5.20
2019-04-04T22:02:38.537Z,5.20
2019-04-04T22:05:09.019Z,5.20
2019-04-04T22:07:38.672Z,5.20
2019-04-04T22:10:08.281Z,5.20
2019-04-04T22:12:37.671Z,5.20
2019-04-04T22:15:07.579Z,5.30
2019-04-04T22:17:37.050Z,5.20
2019-04-04T22:20:06.817Z,5.30
2019-04-04T22:22:36.501Z,5.30
2019-04-04T22:25:06.005Z,5.30
2019-04-04T22:27:35.708Z,5.30
2019-04-04T22:30:06.624Z,5.30
2019-04-04T22:32:35.966Z,5.30
2019-04-04T22:35:05.581Z,5.30
2019-04-04T22:37:35.015Z,5.30
2019-04-04T22:40:04.893Z,5.30
2019-04-04T22:42:34.485Z,5.30
2019-04-04T22:45:05.349Z,5.30
2019-04-04T22:47:35.217Z,5.20
2019-04-04T22:50:04.749Z,5.20
2019-04-04T22:52:34.778Z,5.30
2019-04-04T22:55:04.219Z,5.20
2019-04-04T22:57:34.100Z,5.20
2019-04-04T23:00:03.458Z,5.30
2019-04-04T23:02:33.254Z,5.20
2019-04-04T23:05:02.642Z,5.30
2019-04-04T23:07:32.311Z,5.30
2019-04-04T23:10:01.629Z,5.20
2019-04-04T23:12:31.032Z,5.20
2019-04-04T23:15:00.435Z,5.20
2019-04-04T23:17:30.120Z,5.20
2019-04-04T23:19:59.725Z,5.20
2019-04-04T23:22:29.110Z,5.10
2019-04-04T23:24:58.488Z,5.20
2019-04-04T23:27:28.003Z,5.20
2019-04-04T23:29:57.726Z,5.10
2019-04-04T23:32:27.063Z,5.10
2019-04-04T23:34:56.762Z,5.20
2019-04-04T23:37:26.459Z,5.20
2019-04-04T23:39:55.772Z,5.10
2019-04-04T23:42:25.090Z,5.10
2019-04-04T23:45:00.935Z,5.10
2019-04-04T23:47:25.809Z,5.20
2019-04-04T23:49:55.191Z,5.20
2019-04-04T23:52:24.585Z,5.20
2019-04-04T23:54:54.146Z,5.20
2019-04-04T23:57:23.662Z,5.10
2019-04-04T23:59:53.061Z,5.10
